sensor_id;sensor_type;location;lat;lon;timestamp;P1;durP1;ratioP1;P2;durP2;ratioP2
20423;SDS011;10371;49.042;8.002;2022-09-13T00:00:50;4.70;;;4.40;;
20423;SDS011;10371;49.042;8.002;2022-09-13T00:01:52;4.82;;;4.50;;
20423;SDS011;10371;49.042;8.002;2022-09-13T00:02:52;5.28;;;4.88;;
20423;SDS011;10371;49.042;8.002;2022-09-13T00:03:52;4.85;;;4.45;;
20423;SDS011;10371;49.042;8.002;2022-09-13T00:04:52;4.70;;;4.40;;
20423;SDS011;10371;49.042;8.002;2022-09-13T00:05:53;5.07;;;4.70;;
20423;SDS011;10371;49.042;8.002;2022-09-13T00:06:53;4.80;;;4.50;;
20423;SDS011;10371;49.042;8.002;2022-09-13T00:07:54;4.50;;;4.10;;
20423;SDS011;10371;49.042;8.002;2022-09-13T00:08:54;4.75;;;4.35;;
20423;SDS011;10371;49.042;8.002;2022-09-13T00:09:54;4.53;;;4.22;;
20423;SDS011;10371;49.042;8.002;2022-09-13T00:10:55;4.82;;;4.53;;
20423;SDS011;10371;49.042;8.002;2022-09-13T00:11:55;4.35;;;4.05;;
20423;SDS011;10371;49.042;8.002;2022-09-13T00:12:55;4.72;;;4.43;;
20423;SDS011;10371;49.042;8.002;2022-09-13T00:13:56;4.53;;;4.13;;
20423;SDS011;10371;49.042;8.002;2022-09-13T00:14:57;4.80;;;4.47;;
20423;SDS011;10371;49.042;8.002;2022-09-13T00:15:57;4.72;;;4.43;;
20423;SDS011;10371;49.042;8.002;2022-09-13T00:17:00;4.82;;;4.45;;
20423;SDS011;10371;49.042;8.002;2022-09-13T00:18:00;4.55;;;4.20;;
20423;SDS011;10371;49.042;8.002;2022-09-13T00:19:01;4.82;;;4.32;;
20423;SDS011;10371;49.042;8.002;2022-09-13T00:20:01;4.65;;;4.25;;
20423;SDS011;10371;49.042;8.002;2022-09-13T00:21:03;4.50;;;4.20;;
20423;SDS011;10371;49.042;8.002;2022-09-13T00:22:05;4.45;;;4.13;;
20423;SDS011;10371;49.042;8.002;2022-09-13T00:23:05;4.75;;;4.03;;
20423;SDS011;10371;49.042;8.002;2022-09-13T00:24:07;4.65;;;4.25;;
20423;SDS011;10371;49.042;8.002;2022-09-13T00:25:07;5.22;;;4.82;;
20423;SDS011;10371;49.042;8.002;2022-09-13T00:26:09;4.30;;;3.97;;
20423;SDS011;10371;49.042;8.002;2022-09-13T00:27:10;5.15;;;4.68;;
20423;SDS011;10371;49.042;8.002;2022-09-13T00:28:11;5.03;;;4.53;;
20423;SDS011;10371;49.042;8.002;2022-09-13T00:29:12;5.20;;;4.80;;
20423;SDS011;10371;49.042;8.002;2022-09-13T00:30:12;4.90;;;4.50;;
20423;SDS011;10371;49.042;8.002;2022-09-13T00:31:12;4.97;;;4.60;;
20423;SDS011;10371;49.042;8.002;2022-09-13T00:32:13;5.10;;;4.70;;
20423;SDS011;10371;49.042;8.002;2022-09-13T00:33:13;5.15;;;4.85;;
20423;SDS011;10371;49.042;8.002;2022-09-13T00:34:13;4.72;;;4.32;;
20423;SDS011;10371;49.042;8.002;2022-09-13T00:35:13;5.20;;;4.80;;
20423;SDS011;10371;49.042;8.002;2022-09-13T00:36:14;4.93;;;4.53;;
20423;SDS011;10371;49.042;8.002;2022-09-13T00:37:14;5.45;;;5.05;;
20423;SDS011;10371;49.042;8.002;2022-09-13T00:38:15;5.15;;;4.75;;
20423;SDS011;10371;49.042;8.002;2022-09-13T00:39:15;4.93;;;4.53;;
20423;SDS011;10371;49.042;8.002;2022-09-13T00:40:15;5.50;;;5.00;;
20423;SDS011;10371;49.042;8.002;2022-09-13T00:41:16;5.40;;;4.90;;
20423;SDS011;10371;49.042;8.002;2022-09-13T00:42:23;5.40;;;5.00;;
20423;SDS011;10371;49.042;8.002;2022-09-13T00:43:44;5.15;;;4.75;;
20423;SDS011;10371;49.042;8.002;2022-09-13T00:44:55;5.32;;;4.93;;
20423;SDS011;10371;49.042;8.002;2022-09-13T00:45:59;5.22;;;4.80;;
20423;SDS011;10371;49.042;8.002;2022-09-13T00:46:59;5.18;;;4.15;;
20423;SDS011;10371;49.042;8.002;2022-09-13T00:48:00;5.00;;;4.57;;
20423;SDS011;10371;49.042;8.002;2022-09-13T00:50:17;5.15;;;4.65;;
20423;SDS011;10371;49.042;8.002;2022-09-13T00:51:28;4.95;;;4.55;;
20423;SDS011;10371;49.042;8.002;2022-09-13T00:52:29;5.95;;;5.10;;
20423;SDS011;10371;49.042;8.002;2022-09-13T00:53:32;5.20;;;4.70;;
20423;SDS011;10371;49.042;8.002;2022-09-13T00:54:39;5.32;;;4.85;;
20423;SDS011;10371;49.042;8.002;2022-09-13T00:55:46;4.97;;;4.57;;
20423;SDS011;10371;49.042;8.002;2022-09-13T00:56:52;7.32;;;4.43;;
20423;SDS011;10371;49.042;8.002;2022-09-13T00:57:57;5.15;;;4.65;;
20423;SDS011;10371;49.042;8.002;2022-09-13T00:59:01;4.72;;;4.38;;
20423;SDS011;10371;49.042;8.002;2022-09-13T01:00:08;5.35;;;4.95;;
20423;SDS011;10371;49.042;8.002;2022-09-13T01:01:13;5.05;;;4.70;;
20423;SDS011;10371;49.042;8.002;2022-09-13T01:02:15;5.10;;;4.70;;
20423;SDS011;10371;49.042;8.002;2022-09-13T01:03:16;5.55;;;5.07;;
20423;SDS011;10371;49.042;8.002;2022-09-13T01:04:20;5.50;;;5.10;;
20423;SDS011;10371;49.042;8.002;2022-09-13T01:05:25;6.03;;;4.78;;
20423;SDS011;10371;49.042;8.002;2022-09-13T01:06:30;5.13;;;4.70;;
20423;SDS011;10371;49.042;8.002;2022-09-13T01:07:34;4.75;;;4.45;;
20423;SDS011;10371;49.042;8.002;2022-09-13T01:08:35;5.43;;;4.82;;
20423;SDS011;10371;49.042;8.002;2022-09-13T01:09:39;5.72;;;5.00;;
20423;SDS011;10371;49.042;8.002;2022-09-13T01:10:43;5.75;;;5.25;;
20423;SDS011;10371;49.042;8.002;2022-09-13T01:11:54;5.38;;;4.90;;
20423;SDS011;10371;49.042;8.002;2022-09-13T01:13:05;5.35;;;4.90;;
20423;SDS011;10371;49.042;8.002;2022-09-13T01:14:13;5.03;;;4.72;;
20423;SDS011;10371;49.042;8.002;2022-09-13T01:15:16;5.53;;;5.13;;
20423;SDS011;10371;49.042;8.002;2022-09-13T01:16:16;5.10;;;4.70;;
20423;SDS011;10371;49.042;8.002;2022-09-13T01:17:17;5.07;;;4.47;;
20423;SDS011;10371;49.042;8.002;2022-09-13T01:18:17;5.00;;;4.50;;
20423;SDS011;10371;49.042;8.002;2022-09-13T01:19:18;5.78;;;5.20;;
20423;SDS011;10371;49.042;8.002;2022-09-13T01:20:19;5.05;;;4.65;;
20423;SDS011;10371;49.042;8.002;2022-09-13T01:27:01;5.13;;;4.72;;
20423;SDS011;10371;49.042;8.002;2022-09-13T01:31:19;5.30;;;4.80;;
20423;SDS011;10371;49.042;8.002;2022-09-13T01:37:14;5.85;;;5.20;;
20423;SDS011;10371;49.042;8.002;2022-09-13T01:46:28;5.50;;;4.50;;
20423;SDS011;10371;49.042;8.002;2022-09-13T01:48:19;4.78;;;4.38;;
20423;SDS011;10371;49.042;8.002;2022-09-13T01:49:02;5.40;;;5.00;;
20423;SDS011;10371;49.042;8.002;2022-09-13T01:51:37;5.28;;;4.50;;
20423;SDS011;10371;49.042;8.002;2022-09-13T01:52:48;5.15;;;4.75;;
20423;SDS011;10371;49.042;8.002;2022-09-13T01:56:31;7.32;;;5.15;;
20423;SDS011;10371;49.042;8.002;2022-09-13T01:58:01;5.57;;;4.93;;
20423;SDS011;10371;49.042;8.002;2022-09-13T01:59:13;5.22;;;4.72;;
20423;SDS011;10371;49.042;8.002;2022-09-13T02:00:18;4.65;;;4.25;;
20423;SDS011;10371;49.042;8.002;2022-09-13T02:01:20;5.22;;;4.80;;
20423;SDS011;10371;49.042;8.002;2022-09-13T02:02:29;5.50;;;4.85;;
20423;SDS011;10371;49.042;8.002;2022-09-13T02:03:32;4.78;;;4.38;;
20423;SDS011;10371;49.042;8.002;2022-09-13T02:04:41;4.65;;;4.25;;
20423;SDS011;10371;49.042;8.002;2022-09-13T02:05:51;4.80;;;4.50;;
20423;SDS011;10371;49.042;8.002;2022-09-13T02:07:02;5.35;;;4.85;;
20423;SDS011;10371;49.042;8.002;2022-09-13T02:08:15;6.28;;;5.00;;
20423;SDS011;10371;49.042;8.002;2022-09-13T02:09:47;5.45;;;5.00;;
20423;SDS011;10371;49.042;8.002;2022-09-13T02:10:52;5.45;;;5.05;;
20423;SDS011;10371;49.042;8.002;2022-09-13T02:12:04;5.30;;;4.90;;
20423;SDS011;10371;49.042;8.002;2022-09-13T02:13:11;5.65;;;5.20;;
20423;SDS011;10371;49.042;8.002;2022-09-13T02:14:17;5.03;;;4.72;;
20423;SDS011;10371;49.042;8.002;2022-09-13T02:15:22;5.13;;;4.63;;
20423;SDS011;10371;49.042;8.002;2022-09-13T02:16:31;5.05;;;4.65;;
20423;SDS011;10371;49.042;8.002;2022-09-13T02:17:36;5.20;;;4.80;;
20423;SDS011;10371;49.042;8.002;2022-09-13T02:18:39;5.20;;;4.78;;
20423;SDS011;10371;49.042;8.002;2022-09-13T02:19:46;5.75;;;5.13;;
20423;SDS011;10371;49.042;8.002;2022-09-13T02:20:52;5.30;;;4.90;;
20423;SDS011;10371;49.042;8.002;2022-09-13T02:21:57;5.05;;;4.65;;
20423;SDS011;10371;49.042;8.002;2022-09-13T02:23:01;5.20;;;4.80;;
20423;SDS011;10371;49.042;8.002;2022-09-13T02:24:05;5.10;;;4.70;;
20423;SDS011;10371;49.042;8.002;2022-09-13T02:25:11;5.43;;;4.97;;
20423;SDS011;10371;49.042;8.002;2022-09-13T02:26:14;5.07;;;4.68;;
20423;SDS011;10371;49.042;8.002;2022-09-13T02:27:21;4.75;;;4.45;;
20423;SDS011;10371;49.042;8.002;2022-09-13T02:28:27;5.40;;;4.88;;
20423;SDS011;10371;49.042;8.002;2022-09-13T02:29:31;5.07;;;4.70;;
20423;SDS011;10371;49.042;8.002;2022-09-13T02:30:36;5.38;;;4.97;;
20423;SDS011;10371;49.042;8.002;2022-09-13T02:31:41;5.20;;;4.80;;
20423;SDS011;10371;49.042;8.002;2022-09-13T02:32:54;6.13;;;5.55;;
20423;SDS011;10371;49.042;8.002;2022-09-13T02:34:11;5.88;;;5.13;;
20423;SDS011;10371;49.042;8.002;2022-09-13T02:35:27;5.38;;;4.97;;
20423;SDS011;10371;49.042;8.002;2022-09-13T02:36:33;6.60;;;5.40;;
20423;SDS011;10371;49.042;8.002;2022-09-13T02:37:36;5.90;;;5.40;;
20423;SDS011;10371;49.042;8.002;2022-09-13T02:38:43;5.15;;;4.75;;
20423;SDS011;10371;49.042;8.002;2022-09-13T02:39:50;5.32;;;4.90;;
20423;SDS011;10371;49.042;8.002;2022-09-13T02:40:56;5.60;;;5.20;;
20423;SDS011;10371;49.042;8.002;2022-09-13T02:43:15;4.95;;;4.45;;
20423;SDS011;10371;49.042;8.002;2022-09-13T02:44:41;5.50;;;5.10;;
20423;SDS011;10371;49.042;8.002;2022-09-13T02:45:50;5.65;;;5.25;;
20423;SDS011;10371;49.042;8.002;2022-09-13T02:48:34;5.30;;;4.90;;
20423;SDS011;10371;49.042;8.002;2022-09-13T02:51:23;5.50;;;5.10;;
20423;SDS011;10371;49.042;8.002;2022-09-13T02:52:32;5.65;;;4.78;;
20423;SDS011;10371;49.042;8.002;2022-09-13T02:55:04;5.60;;;5.20;;
20423;SDS011;10371;49.042;8.002;2022-09-13T02:58:52;5.70;;;5.20;;
20423;SDS011;10371;49.042;8.002;2022-09-13T03:00:00;6.05;;;5.47;;
20423;SDS011;10371;49.042;8.002;2022-09-13T03:01:00;5.47;;;4.97;;
20423;SDS011;10371;49.042;8.002;2022-09-13T03:02:11;5.65;;;5.25;;
20423;SDS011;10371;49.042;8.002;2022-09-13T03:03:15;5.65;;;5.07;;
20423;SDS011;10371;49.042;8.002;2022-09-13T03:04:16;5.60;;;5.10;;
20423;SDS011;10371;49.042;8.002;2022-09-13T03:05:16;4.82;;;4.53;;
20423;SDS011;10371;49.042;8.002;2022-09-13T03:06:21;5.68;;;5.28;;
20423;SDS011;10371;49.042;8.002;2022-09-13T03:07:25;5.40;;;5.00;;
20423;SDS011;10371;49.042;8.002;2022-09-13T03:08:26;5.40;;;4.90;;
20423;SDS011;10371;49.042;8.002;2022-09-13T03:09:27;4.95;;;4.55;;
20423;SDS011;10371;49.042;8.002;2022-09-13T03:10:29;5.05;;;4.55;;
20423;SDS011;10371;49.042;8.002;2022-09-13T03:13:10;5.10;;;4.55;;
20423;SDS011;10371;49.042;8.002;2022-09-13T03:14:18;5.00;;;4.60;;
20423;SDS011;10371;49.042;8.002;2022-09-13T03:15:44;5.20;;;4.75;;
20423;SDS011;10371;49.042;8.002;2022-09-13T03:17:14;4.75;;;4.22;;
20423;SDS011;10371;49.042;8.002;2022-09-13T03:20:08;4.93;;;4.45;;
20423;SDS011;10371;49.042;8.002;2022-09-13T03:23:12;5.10;;;4.60;;
20423;SDS011;10371;49.042;8.002;2022-09-13T03:27:19;4.20;;;3.85;;
20423;SDS011;10371;49.042;8.002;2022-09-13T03:28:43;4.55;;;4.25;;
20423;SDS011;10371;49.042;8.002;2022-09-13T03:31:12;4.40;;;4.00;;
20423;SDS011;10371;49.042;8.002;2022-09-13T03:33:56;6.03;;;4.45;;
20423;SDS011;10371;49.042;8.002;2022-09-13T03:36:11;4.45;;;4.15;;
20423;SDS011;10371;49.042;8.002;2022-09-13T03:37:26;4.68;;;4.25;;
20423;SDS011;10371;49.042;8.002;2022-09-13T03:38:32;4.93;;;4.53;;
20423;SDS011;10371;49.042;8.002;2022-09-13T03:39:48;6.28;;;4.70;;
20423;SDS011;10371;49.042;8.002;2022-09-13T03:40:58;5.53;;;4.78;;
20423;SDS011;10371;49.042;8.002;2022-09-13T03:42:02;5.40;;;4.90;;
20423;SDS011;10371;49.042;8.002;2022-09-13T03:43:15;5.78;;;5.10;;
20423;SDS011;10371;49.042;8.002;2022-09-13T03:44:22;5.28;;;4.82;;
20423;SDS011;10371;49.042;8.002;2022-09-13T03:45:26;5.50;;;5.10;;
20423;SDS011;10371;49.042;8.002;2022-09-13T03:46:34;5.38;;;4.93;;
20423;SDS011;10371;49.042;8.002;2022-09-13T03:47:40;5.15;;;4.75;;
20423;SDS011;10371;49.042;8.002;2022-09-13T03:48:43;5.32;;;4.95;;
20423;SDS011;10371;49.042;8.002;2022-09-13T03:49:44;5.80;;;5.25;;
20423;SDS011;10371;49.042;8.002;2022-09-13T03:50:45;4.82;;;4.43;;
20423;SDS011;10371;49.042;8.002;2022-09-13T03:51:47;5.30;;;4.90;;
20423;SDS011;10371;49.042;8.002;2022-09-13T03:52:50;5.60;;;5.05;;
20423;SDS011;10371;49.042;8.002;2022-09-13T03:53:56;5.28;;;4.88;;
20423;SDS011;10371;49.042;8.002;2022-09-13T03:55:00;4.97;;;4.50;;
20423;SDS011;10371;49.042;8.002;2022-09-13T03:56:10;5.50;;;4.80;;
20423;SDS011;10371;49.042;8.002;2022-09-13T03:57:13;5.75;;;5.25;;
20423;SDS011;10371;49.042;8.002;2022-09-13T03:58:20;5.22;;;4.82;;
20423;SDS011;10371;49.042;8.002;2022-09-13T03:59:21;7.30;;;5.30;;
20423;SDS011;10371;49.042;8.002;2022-09-13T04:00:22;4.85;;;4.45;;
20423;SDS011;10371;49.042;8.002;2022-09-13T04:01:23;4.72;;;4.30;;
20423;SDS011;10371;49.042;8.002;2022-09-13T04:02:24;4.78;;;4.30;;
20423;SDS011;10371;49.042;8.002;2022-09-13T04:03:25;4.65;;;4.00;;
20423;SDS011;10371;49.042;8.002;2022-09-13T04:04:25;5.05;;;4.13;;
20423;SDS011;10371;49.042;8.002;2022-09-13T04:05:25;4.57;;;3.83;;
20423;SDS011;10371;49.042;8.002;2022-09-13T04:06:26;4.05;;;3.70;;
20423;SDS011;10371;49.042;8.002;2022-09-13T04:07:26;5.30;;;4.10;;
20423;SDS011;10371;49.042;8.002;2022-09-13T04:08:26;4.60;;;4.20;;
20423;SDS011;10371;49.042;8.002;2022-09-13T04:09:26;4.38;;;3.97;;
20423;SDS011;10371;49.042;8.002;2022-09-13T04:10:27;4.10;;;3.80;;
20423;SDS011;10371;49.042;8.002;2022-09-13T04:11:30;4.60;;;4.10;;
20423;SDS011;10371;49.042;8.002;2022-09-13T04:12:31;4.22;;;3.83;;
20423;SDS011;10371;49.042;8.002;2022-09-13T04:13:31;4.60;;;4.20;;
20423;SDS011;10371;49.042;8.002;2022-09-13T04:14:32;4.63;;;4.20;;
20423;SDS011;10371;49.042;8.002;2022-09-13T04:15:32;4.35;;;4.00;;
20423;SDS011;10371;49.042;8.002;2022-09-13T04:16:32;4.57;;;4.28;;
20423;SDS011;10371;49.042;8.002;2022-09-13T04:17:32;4.97;;;4.45;;
20423;SDS011;10371;49.042;8.002;2022-09-13T04:18:33;4.65;;;3.88;;
20423;SDS011;10371;49.042;8.002;2022-09-13T04:19:33;4.18;;;3.88;;
20423;SDS011;10371;49.042;8.002;2022-09-13T04:20:34;4.22;;;3.92;;
20423;SDS011;10371;49.042;8.002;2022-09-13T04:21:35;4.13;;;3.75;;
20423;SDS011;10371;49.042;8.002;2022-09-13T04:22:35;4.70;;;4.30;;
20423;SDS011;10371;49.042;8.002;2022-09-13T04:23:35;4.82;;;4.50;;
20423;SDS011;10371;49.042;8.002;2022-09-13T04:24:36;5.53;;;4.20;;
20423;SDS011;10371;49.042;8.002;2022-09-13T04:25:37;5.00;;;4.05;;
20423;SDS011;10371;49.042;8.002;2022-09-13T04:26:39;5.18;;;4.75;;
20423;SDS011;10371;49.042;8.002;2022-09-13T04:27:39;4.97;;;4.60;;
20423;SDS011;10371;49.042;8.002;2022-09-13T04:28:40;4.97;;;4.40;;
20423;SDS011;10371;49.042;8.002;2022-09-13T04:29:40;5.35;;;4.85;;
20423;SDS011;10371;49.042;8.002;2022-09-13T04:30:42;4.78;;;4.47;;
20423;SDS011;10371;49.042;8.002;2022-09-13T04:31:44;5.20;;;4.70;;
20423;SDS011;10371;49.042;8.002;2022-09-13T04:32:45;5.70;;;5.20;;
20423;SDS011;10371;49.042;8.002;2022-09-13T04:33:45;5.13;;;4.72;;
20423;SDS011;10371;49.042;8.002;2022-09-13T04:34:45;5.65;;;5.25;;
20423;SDS011;10371;49.042;8.002;2022-09-13T04:35:46;5.55;;;4.95;;
20423;SDS011;10371;49.042;8.002;2022-09-13T04:36:46;5.10;;;4.70;;
20423;SDS011;10371;49.042;8.002;2022-09-13T04:37:47;4.80;;;4.40;;
20423;SDS011;10371;49.042;8.002;2022-09-13T04:38:48;4.55;;;4.10;;
20423;SDS011;10371;49.042;8.002;2022-09-13T04:39:48;5.10;;;4.70;;
20423;SDS011;10371;49.042;8.002;2022-09-13T04:40:52;5.25;;;4.75;;
20423;SDS011;10371;49.042;8.002;2022-09-13T04:41:55;5.15;;;4.72;;
20423;SDS011;10371;49.042;8.002;2022-09-13T04:42:56;5.07;;;4.60;;
20423;SDS011;10371;49.042;8.002;2022-09-13T04:43:56;5.20;;;4.78;;
20423;SDS011;10371;49.042;8.002;2022-09-13T04:44:57;5.20;;;4.80;;
20423;SDS011;10371;49.042;8.002;2022-09-13T04:46:00;5.05;;;4.55;;
20423;SDS011;10371;49.042;8.002;2022-09-13T04:47:00;4.95;;;4.50;;
20423;SDS011;10371;49.042;8.002;2022-09-13T04:48:01;5.00;;;4.10;;
20423;SDS011;10371;49.042;8.002;2022-09-13T04:49:02;4.40;;;4.10;;
20423;SDS011;10371;49.042;8.002;2022-09-13T04:50:03;5.03;;;4.53;;
20423;SDS011;10371;49.042;8.002;2022-09-13T04:51:03;4.25;;;3.95;;
20423;SDS011;10371;49.042;8.002;2022-09-13T04:52:03;5.05;;;4.55;;
20423;SDS011;10371;49.042;8.002;2022-09-13T04:53:04;4.80;;;4.30;;
20423;SDS011;10371;49.042;8.002;2022-09-13T04:54:04;4.60;;;4.25;;
20423;SDS011;10371;49.042;8.002;2022-09-13T04:55:05;4.32;;;3.95;;
20423;SDS011;10371;49.042;8.002;2022-09-13T04:56:05;4.88;;;4.50;;
20423;SDS011;10371;49.042;8.002;2022-09-13T04:57:06;5.15;;;4.30;;
20423;SDS011;10371;49.042;8.002;2022-09-13T04:58:07;5.10;;;4.30;;
20423;SDS011;10371;49.042;8.002;2022-09-13T04:59:08;5.03;;;4.63;;
20423;SDS011;10371;49.042;8.002;2022-09-13T05:00:09;4.82;;;4.43;;
20423;SDS011;10371;49.042;8.002;2022-09-13T05:01:10;5.40;;;4.82;;
20423;SDS011;10371;49.042;8.002;2022-09-13T05:02:11;6.10;;;5.07;;
20423;SDS011;10371;49.042;8.002;2022-09-13T05:03:11;5.53;;;5.03;;
20423;SDS011;10371;49.042;8.002;2022-09-13T05:04:12;4.68;;;4.28;;
20423;SDS011;10371;49.042;8.002;2022-09-13T05:05:12;5.07;;;4.68;;
20423;SDS011;10371;49.042;8.002;2022-09-13T05:06:14;5.18;;;4.68;;
20423;SDS011;10371;49.042;8.002;2022-09-13T05:07:18;5.13;;;4.70;;
20423;SDS011;10371;49.042;8.002;2022-09-13T05:08:18;5.32;;;4.93;;
20423;SDS011;10371;49.042;8.002;2022-09-13T05:09:19;5.60;;;5.07;;
20423;SDS011;10371;49.042;8.002;2022-09-13T05:10:19;5.30;;;4.90;;
20423;SDS011;10371;49.042;8.002;2022-09-13T05:11:26;5.50;;;5.00;;
20423;SDS011;10371;49.042;8.002;2022-09-13T05:12:27;5.05;;;4.65;;
20423;SDS011;10371;49.042;8.002;2022-09-13T05:13:28;5.43;;;5.03;;
20423;SDS011;10371;49.042;8.002;2022-09-13T05:14:28;5.50;;;5.10;;
20423;SDS011;10371;49.042;8.002;2022-09-13T05:15:28;5.25;;;4.85;;
20423;SDS011;10371;49.042;8.002;2022-09-13T05:16:30;5.43;;;4.93;;
20423;SDS011;10371;49.042;8.002;2022-09-13T05:17:31;5.85;;;5.43;;
20423;SDS011;10371;49.042;8.002;2022-09-13T05:18:33;4.80;;;4.50;;
20423;SDS011;10371;49.042;8.002;2022-09-13T05:19:34;5.00;;;4.53;;
20423;SDS011;10371;49.042;8.002;2022-09-13T05:20:35;5.75;;;4.88;;
20423;SDS011;10371;49.042;8.002;2022-09-13T05:21:35;5.53;;;5.00;;
20423;SDS011;10371;49.042;8.002;2022-09-13T05:22:35;4.68;;;4.38;;
20423;SDS011;10371;49.042;8.002;2022-09-13T05:23:35;4.95;;;4.55;;
20423;SDS011;10371;49.042;8.002;2022-09-13T05:24:36;5.07;;;4.68;;
20423;SDS011;10371;49.042;8.002;2022-09-13T05:25:36;5.18;;;4.72;;
20423;SDS011;10371;49.042;8.002;2022-09-13T05:26:36;5.47;;;5.00;;
20423;SDS011;10371;49.042;8.002;2022-09-13T05:27:37;5.38;;;4.97;;
20423;SDS011;10371;49.042;8.002;2022-09-13T05:28:37;4.93;;;4.43;;
20423;SDS011;10371;49.042;8.002;2022-09-13T05:29:37;4.97;;;4.57;;
20423;SDS011;10371;49.042;8.002;2022-09-13T05:30:37;4.43;;;4.13;;
20423;SDS011;10371;49.042;8.002;2022-09-13T05:31:38;4.70;;;4.40;;
20423;SDS011;10371;49.042;8.002;2022-09-13T05:32:41;4.97;;;4.63;;
20423;SDS011;10371;49.042;8.002;2022-09-13T05:33:41;4.78;;;4.38;;
20423;SDS011;10371;49.042;8.002;2022-09-13T05:34:42;5.10;;;4.72;;
20423;SDS011;10371;49.042;8.002;2022-09-13T05:35:42;5.20;;;4.70;;
20423;SDS011;10371;49.042;8.002;2022-09-13T05:36:42;5.10;;;4.68;;
20423;SDS011;10371;49.042;8.002;2022-09-13T05:37:43;6.43;;;4.85;;
20423;SDS011;10371;49.042;8.002;2022-09-13T05:38:44;5.20;;;4.72;;
20423;SDS011;10371;49.042;8.002;2022-09-13T05:39:44;5.07;;;4.70;;
20423;SDS011;10371;49.042;8.002;2022-09-13T05:40:44;4.57;;;4.25;;
20423;SDS011;10371;49.042;8.002;2022-09-13T05:41:45;6.03;;;4.60;;
20423;SDS011;10371;49.042;8.002;2022-09-13T05:42:45;4.40;;;4.10;;
20423;SDS011;10371;49.042;8.002;2022-09-13T05:43:46;5.13;;;3.97;;
20423;SDS011;10371;49.042;8.002;2022-09-13T05:44:46;4.18;;;3.67;;
20423;SDS011;10371;49.042;8.002;2022-09-13T05:45:47;4.05;;;3.65;;
20423;SDS011;10371;49.042;8.002;2022-09-13T05:46:47;4.13;;;3.80;;
20423;SDS011;10371;49.042;8.002;2022-09-13T05:47:49;6.30;;;3.80;;
20423;SDS011;10371;49.042;8.002;2022-09-13T05:48:50;4.28;;;3.88;;
20423;SDS011;10371;49.042;8.002;2022-09-13T05:49:50;3.85;;;3.55;;
20423;SDS011;10371;49.042;8.002;2022-09-13T05:50:51;4.55;;;4.10;;
20423;SDS011;10371;49.042;8.002;2022-09-13T05:51:51;4.05;;;3.53;;
20423;SDS011;10371;49.042;8.002;2022-09-13T05:52:52;4.78;;;4.25;;
20423;SDS011;10371;49.042;8.002;2022-09-13T05:53:53;4.13;;;3.83;;
20423;SDS011;10371;49.042;8.002;2022-09-13T05:54:53;4.35;;;3.97;;
20423;SDS011;10371;49.042;8.002;2022-09-13T05:55:54;4.32;;;4.03;;
20423;SDS011;10371;49.042;8.002;2022-09-13T05:56:54;4.53;;;4.20;;
20423;SDS011;10371;49.042;8.002;2022-09-13T05:57:56;4.95;;;4.45;;
20423;SDS011;10371;49.042;8.002;2022-09-13T05:58:57;4.65;;;4.13;;
20423;SDS011;10371;49.042;8.002;2022-09-13T05:59:58;5.25;;;4.38;;
20423;SDS011;10371;49.042;8.002;2022-09-13T06:00:58;4.10;;;3.80;;
20423;SDS011;10371;49.042;8.002;2022-09-13T06:01:58;7.43;;;4.05;;
20423;SDS011;10371;49.042;8.002;2022-09-13T06:02:58;5.70;;;3.92;;
20423;SDS011;10371;49.042;8.002;2022-09-13T06:03:59;3.97;;;3.65;;
20423;SDS011;10371;49.042;8.002;2022-09-13T06:05:00;4.30;;;4.00;;
20423;SDS011;10371;49.042;8.002;2022-09-13T06:06:00;5.57;;;3.80;;
20423;SDS011;10371;49.042;8.002;2022-09-13T06:07:01;7.53;;;3.90;;
20423;SDS011;10371;49.042;8.002;2022-09-13T06:08:01;3.70;;;3.50;;
20423;SDS011;10371;49.042;8.002;2022-09-13T06:09:01;4.60;;;3.22;;
20423;SDS011;10371;49.042;8.002;2022-09-13T06:10:02;4.70;;;4.00;;
20423;SDS011;10371;49.042;8.002;2022-09-13T06:11:05;7.70;;;6.07;;
20423;SDS011;10371;49.042;8.002;2022-09-13T06:12:10;6.07;;;5.57;;
20423;SDS011;10371;49.042;8.002;2022-09-13T06:13:10;5.03;;;4.53;;
20423;SDS011;10371;49.042;8.002;2022-09-13T06:14:10;4.80;;;4.40;;
20423;SDS011;10371;49.042;8.002;2022-09-13T06:15:11;5.20;;;4.70;;
20423;SDS011;10371;49.042;8.002;2022-09-13T06:16:12;8.27;;;4.72;;
20423;SDS011;10371;49.042;8.002;2022-09-13T06:17:12;5.57;;;5.07;;
20423;SDS011;10371;49.042;8.002;2022-09-13T06:18:14;4.85;;;4.43;;
20423;SDS011;10371;49.042;8.002;2022-09-13T06:19:14;6.50;;;4.90;;
20423;SDS011;10371;49.042;8.002;2022-09-13T06:20:14;6.00;;;4.57;;
20423;SDS011;10371;49.042;8.002;2022-09-13T06:21:15;7.63;;;5.30;;
20423;SDS011;10371;49.042;8.002;2022-09-13T06:22:18;5.22;;;4.82;;
20423;SDS011;10371;49.042;8.002;2022-09-13T06:23:18;7.57;;;5.05;;
20423;SDS011;10371;49.042;8.002;2022-09-13T06:24:18;6.35;;;5.30;;
20423;SDS011;10371;49.042;8.002;2022-09-13T06:25:19;5.75;;;5.20;;
20423;SDS011;10371;49.042;8.002;2022-09-13T06:26:21;8.48;;;5.18;;
20423;SDS011;10371;49.042;8.002;2022-09-13T06:27:22;6.20;;;5.43;;
20423;SDS011;10371;49.042;8.002;2022-09-13T06:28:23;9.77;;;5.07;;
20423;SDS011;10371;49.042;8.002;2022-09-13T06:29:23;5.05;;;4.55;;
20423;SDS011;10371;49.042;8.002;2022-09-13T06:30:23;6.53;;;5.10;;
20423;SDS011;10371;49.042;8.002;2022-09-13T06:31:25;7.80;;;4.85;;
20423;SDS011;10371;49.042;8.002;2022-09-13T06:32:30;5.35;;;4.90;;
20423;SDS011;10371;49.042;8.002;2022-09-13T06:33:31;5.40;;;5.00;;
20423;SDS011;10371;49.042;8.002;2022-09-13T06:34:35;6.30;;;4.72;;
20423;SDS011;10371;49.042;8.002;2022-09-13T06:35:35;4.90;;;4.50;;
20423;SDS011;10371;49.042;8.002;2022-09-13T06:36:36;5.38;;;4.88;;
20423;SDS011;10371;49.042;8.002;2022-09-13T06:37:36;4.90;;;4.60;;
20423;SDS011;10371;49.042;8.002;2022-09-13T06:38:37;6.35;;;5.00;;
20423;SDS011;10371;49.042;8.002;2022-09-13T06:39:38;5.00;;;4.43;;
20423;SDS011;10371;49.042;8.002;2022-09-13T06:40:38;5.35;;;4.40;;
20423;SDS011;10371;49.042;8.002;2022-09-13T06:41:38;5.32;;;4.82;;
20423;SDS011;10371;49.042;8.002;2022-09-13T06:42:39;4.95;;;4.55;;
20423;SDS011;10371;49.042;8.002;2022-09-13T06:43:39;5.07;;;4.68;;
20423;SDS011;10371;49.042;8.002;2022-09-13T06:44:40;5.45;;;4.45;;
20423;SDS011;10371;49.042;8.002;2022-09-13T06:45:41;8.10;;;5.00;;
20423;SDS011;10371;49.042;8.002;2022-09-13T06:46:41;5.00;;;4.60;;
20423;SDS011;10371;49.042;8.002;2022-09-13T06:47:41;5.90;;;4.70;;
20423;SDS011;10371;49.042;8.002;2022-09-13T06:48:42;4.38;;;3.97;;
20423;SDS011;10371;49.042;8.002;2022-09-13T06:49:44;4.55;;;4.25;;
20423;SDS011;10371;49.042;8.002;2022-09-13T06:50:44;4.65;;;4.25;;
20423;SDS011;10371;49.042;8.002;2022-09-13T06:51:44;4.60;;;4.07;;
20423;SDS011;10371;49.042;8.002;2022-09-13T06:52:45;4.03;;;3.72;;
20423;SDS011;10371;49.042;8.002;2022-09-13T06:53:45;5.43;;;4.30;;
20423;SDS011;10371;49.042;8.002;2022-09-13T06:54:47;6.18;;;5.13;;
20423;SDS011;10371;49.042;8.002;2022-09-13T06:55:48;7.18;;;5.57;;
20423;SDS011;10371;49.042;8.002;2022-09-13T06:56:48;9.95;;;5.53;;
20423;SDS011;10371;49.042;8.002;2022-09-13T06:57:48;8.70;;;5.80;;
20423;SDS011;10371;49.042;8.002;2022-09-13T06:58:49;8.60;;;5.07;;
20423;SDS011;10371;49.042;8.002;2022-09-13T06:59:53;10.27;;;5.20;;
20423;SDS011;10371;49.042;8.002;2022-09-13T07:00:53;5.78;;;4.90;;
20423;SDS011;10371;49.042;8.002;2022-09-13T07:01:54;5.15;;;4.70;;
20423;SDS011;10371;49.042;8.002;2022-09-13T07:02:54;7.60;;;4.80;;
20423;SDS011;10371;49.042;8.002;2022-09-13T07:04:00;6.88;;;4.82;;
20423;SDS011;10371;49.042;8.002;2022-09-13T07:05:02;6.70;;;4.57;;
20423;SDS011;10371;49.042;8.002;2022-09-13T07:06:13;5.18;;;4.57;;
20423;SDS011;10371;49.042;8.002;2022-09-13T07:07:15;5.97;;;5.18;;
20423;SDS011;10371;49.042;8.002;2022-09-13T07:08:15;7.78;;;4.75;;
20423;SDS011;10371;49.042;8.002;2022-09-13T07:09:19;4.95;;;4.55;;